Time;durP1;ratioP1;P1;durP2;ratioP2;P2;SDS_P1;SDS_P2;PMS_P1;PMS_P2;Temp;Humidity;BMP_temperature;BMP_pressure;BME280_temperature;BME280_humidity;BME280_pressure;Samples;Min_cycle;Max_cycle;Signal;HPM_P1;HPM_P2
2024/03/14 00:00:34;;;;;;;;;;;;;;;20.45;43.09;95775.84;10293896;28;2827;-64
2024/03/14 00:05:34;;;;;;;;;;;;;;;20.44;42.34;95771.66;10294733;28;2803;-64
2024/03/14 00:10:35;;;;;;;;;;;;;;;20.42;42.76;95763.25;10292659;28;2791;-65
2024/03/14 00:15:35;;;;;;;;;;;;;;;20.41;42.76;95756.38;10280725;28;2881;-64
2024/03/14 00:20:37;;;;;;;;;;;;;;;20.39;42.84;95747.97;10292447;28;2854;-64
2024/03/14 00:25:40;;;;;;;;;;;;;;;20.36;43.17;95739.84;10293018;28;2951;-65
2024/03/14 00:30:41;;;;;;;;;;;;;;;20.35;42.79;95741.69;10291829;28;2832;-64
2024/03/14 00:35:41;;;;;;;;;;;;;;;20.35;43.34;95728.50;10288852;28;2884;-65
2024/03/14 00:40:41;;;;;;;;;;;;;;;20.34;43.56;95723.53;10273733;28;2847;-64
2024/03/14 00:45:41;;;;;;;;;;;;;;;20.33;43.52;95722.75;10277775;28;2825;-64
2024/03/14 00:50:42;;;;;;;;;;;;;;;20.33;43.52;95727.22;10311914;28;2857;-63
2024/03/14 00:55:42;;;;;;;;;;;;;;;20.30;43.61;95718.00;10316722;28;2825;-64
2024/03/14 01:00:43;;;;;;;;;;;;;;;20.28;43.72;95714.84;10290744;28;2937;-64
2024/03/14 01:05:44;;;;;;;;;;;;;;;20.28;43.50;95718.28;10273380;28;2828;-63
2024/03/14 01:10:45;;;;;;;;;;;;;;;20.26;43.48;95711.72;10291860;28;2885;-64
2024/03/14 01:15:45;;;;;;;;;;;;;;;20.24;43.33;95703.31;10279078;28;2857;-64
2024/03/14 01:20:45;;;;;;;;;;;;;;;20.23;43.33;95696.47;10293699;28;2940;-64
2024/03/14 01:25:46;;;;;;;;;;;;;;;20.20;43.24;95691.75;10316579;28;2805;-65
2024/03/14 01:30:48;;;;;;;;;;;;;;;20.20;43.16;95678.59;10275736;28;2924;-65
2024/03/14 01:35:49;;;;;;;;;;;;;;;20.19;43.18;95685.72;10284518;28;2833;-65
2024/03/14 01:40:49;;;;;;;;;;;;;;;20.16;43.26;95677.53;10292957;28;2862;-65
2024/03/14 01:45:50;;;;;;;;;;;;;;;20.14;42.92;95671.75;10308635;28;2767;-64
2024/03/14 01:50:50;;;;;;;;;;;;;;;20.12;42.97;95664.13;10298211;28;2876;-65
2024/03/14 01:55:50;;;;;;;;;;;;;;;20.12;42.68;95665.97;10289024;28;2881;-65
2024/03/14 02:00:50;;;;;;;;;;;;;;;20.09;42.83;95659.41;10295375;28;2858;-66
2024/03/14 02:05:54;;;;;;;;;;;;;;;20.08;42.86;95654.41;10301014;28;2877;-65
2024/03/14 02:10:54;;;;;;;;;;;;;;;20.07;42.83;95655.50;10293027;28;2802;-65
2024/03/14 02:15:54;;;;;;;;;;;;;;;20.05;42.77;95647.84;10292042;28;2901;-64
2024/03/14 02:20:55;;;;;;;;;;;;;;;20.04;42.50;95650.75;10313046;28;2860;-64
2024/03/14 02:25:55;;;;;;;;;;;;;;;20.03;42.78;95643.94;10296334;28;2849;-64
2024/03/14 02:30:55;;;;;;;;;;;;;;;20.01;42.52;95635.53;10325414;28;2825;-64
2024/03/14 02:35:55;;;;;;;;;;;;;;;20.01;42.43;95640.78;10292342;28;2844;-64
2024/03/14 02:40:56;;;;;;;;;;;;;;;20.00;42.47;95633.94;10321422;28;2834;-64
2024/03/14 02:45:56;;;;;;;;;;;;;;;19.97;42.31;95624.75;10290262;28;2897;-64
2024/03/14 02:50:56;;;;;;;;;;;;;;;19.97;42.49;95630.00;10298894;28;2811;-64
2024/03/14 02:55:57;;;;;;;;;;;;;;;19.96;42.33;95622.41;10309406;28;2893;-64
2024/03/14 03:00:59;;;;;;;;;;;;;;;19.95;42.48;95620.81;10296571;28;2840;-64
2024/03/14 03:05:59;;;;;;;;;;;;;;;19.93;42.35;95612.41;10294174;28;2807;-64
2024/03/14 03:10:59;;;;;;;;;;;;;;;19.92;42.09;95605.59;10308331;28;2785;-64
2024/03/14 03:16:04;;;;;;;;;;;;;;;19.91;42.25;95599.53;10324093;28;2746;-64
2024/03/14 03:21:05;;;;;;;;;;;;;;;19.90;42.06;95615.59;10297336;28;2848;-64
2024/03/14 03:26:08;;;;;;;;;;;;;;;19.90;42.00;95615.59;10290074;28;2950;-65
2024/03/14 03:31:08;;;;;;;;;;;;;;;19.88;42.03;95621.13;10289017;28;2849;-64
2024/03/14 03:36:09;;;;;;;;;;;;;;;19.87;41.96;95614.28;10297744;28;2868;-65
2024/03/14 03:41:10;;;;;;;;;;;;;;;19.85;41.89;95611.13;10373230;28;2998;-65
2024/03/14 03:46:10;;;;;;;;;;;;;;;19.85;42.08;95615.59;10297280;28;2823;-64
2024/03/14 03:51:12;;;;;;;;;;;;;;;19.84;42.06;95612.22;10294140;28;2785;-64
2024/03/14 03:56:13;;;;;;;;;;;;;;;19.83;41.79;95612.47;10303606;28;2807;-64
2024/03/14 04:01:13;;;;;;;;;;;;;;;19.83;41.69;95615.09;10321394;28;2772;-64
2024/03/14 04:06:15;;;;;;;;;;;;;;;19.82;41.67;95613.53;10320500;28;2922;-64
2024/03/14 04:11:15;;;;;;;;;;;;;;;19.81;41.89;95623.25;10291062;28;2873;-64
2024/03/14 04:16:16;;;;;;;;;;;;;;;19.79;41.71;95616.69;10293336;28;2803;-64
2024/03/14 04:21:16;;;;;;;;;;;;;;;19.78;41.72;95610.66;10312111;28;2796;-64
2024/03/14 04:26:17;;;;;;;;;;;;;;;19.77;41.57;95603.03;10290156;28;2961;-64
2024/03/14 04:31:19;;;;;;;;;;;;;;;19.76;41.79;95604.91;10286792;28;2832;-64
2024/03/14 04:36:20;;;;;;;;;;;;;;;19.76;41.62;95601.47;10284697;28;3096;-64
2024/03/14 04:41:21;;;;;;;;;;;;;;;19.75;41.44;95590.16;10294309;28;2834;-64
2024/03/14 04:46:21;;;;;;;;;;;;;;;19.74;41.52;95585.94;10297223;28;2857;-65
2024/03/14 04:51:22;;;;;;;;;;;;;;;19.73;41.41;95594.13;10292698;28;2949;-64
2024/03/14 04:56:22;;;;;;;;;;;;;;;19.71;41.35;95594.38;10286700;28;2888;-64
2024/03/14 05:01:23;;;;;;;;;;;;;;;19.72;41.27;95600.44;10290286;28;2912;-64
2024/03/14 05:06:23;;;;;;;;;;;;;;;19.70;41.43;95608.59;10286701;28;2882;-65
2024/03/14 05:11:24;;;;;;;;;;;;;;;19.73;41.57;95597.53;10286346;28;2784;-64
2024/03/14 05:16:25;;;;;;;;;;;;;;;19.77;41.30;95588.03;10292357;28;2818;-63
2024/03/14 05:21:25;;;;;;;;;;;;;;;19.84;41.29;95590.38;10286063;28;2779;-66
2024/03/14 05:26:27;;;;;;;;;;;;;;;19.91;41.17;95599.53;10293520;28;2824;-65
2024/03/14 05:31:27;;;;;;;;;;;;;;;20.00;41.05;95602.38;10299837;28;2776;-65
2024/03/14 05:36:27;;;;;;;;;;;;;;;20.06;40.62;95606.53;10287677;28;2792;-64
2024/03/14 05:41:29;;;;;;;;;;;;;;;20.12;40.68;95603.59;10296189;28;2857;-64
2024/03/14 05:46:29;;;;;;;;;;;;;;;20.19;40.77;95595.41;10297410;28;2881;-67
2024/03/14 05:51:29;;;;;;;;;;;;;;;20.23;40.40;95602.53;10287208;28;3030;-62
2024/03/14 05:56:30;;;;;;;;;;;;;;;20.25;40.09;95605.66;10288092;28;2986;-62
2024/03/14 06:01:30;;;;;;;;;;;;;;;20.27;39.68;95605.38;10290404;28;2865;-61
2024/03/14 06:06:30;;;;;;;;;;;;;;;20.31;39.74;95609.03;10288920;28;2852;-64
2024/03/14 06:11:33;;;;;;;;;;;;;;;20.36;39.73;95610.84;10284445;28;2961;-63
2024/03/14 06:16:34;;;;;;;;;;;;;;;20.41;39.40;95613.44;10285771;28;2894;-61
2024/03/14 06:21:40;;;;;;;;;;;;;;;20.42;39.34;95618.44;10284680;28;2890;-60
2024/03/14 06:26:41;;;;;;;;;;;;;;;20.45;39.30;95622.34;10289371;28;2869;-60
2024/03/14 06:31:41;;;;;;;;;;;;;;;20.47;39.55;95628.91;10288102;28;2875;-60
2024/03/14 06:36:41;;;;;;;;;;;;;;;20.47;39.11;95634.19;10289038;28;2863;-61
2024/03/14 06:41:44;;;;;;;;;;;;;;;20.50;39.58;95633.66;10287859;28;2842;-64
2024/03/14 06:46:44;;;;;;;;;;;;;;;20.54;39.46;95634.66;10291034;28;2815;-64
2024/03/14 06:51:45;;;;;;;;;;;;;;;20.58;38.38;95634.88;10290597;28;2832;-64
2024/03/14 06:56:45;;;;;;;;;;;;;;;20.62;38.93;95638.53;10293052;28;2852;-64
2024/03/14 07:01:46;;;;;;;;;;;;;;;20.66;39.64;95647.47;10380526;28;2892;-64
2024/03/14 07:06:47;;;;;;;;;;;;;;;20.71;39.40;95645.56;10295260;28;2887;-64
2024/03/14 07:11:48;;;;;;;;;;;;;;;20.71;39.52;95653.47;10303404;28;3187;-65
2024/03/14 07:16:49;;;;;;;;;;;;;;;20.73;39.69;95645.31;10298308;28;2898;-65
2024/03/14 07:21:56;;;;;;;;;;;;;;;20.76;39.73;95655.28;10303525;28;2810;-64
2024/03/14 07:26:58;;;;;;;;;;;;;;;20.77;39.28;95649.72;10294524;28;2851;-64
2024/03/14 07:31:58;;;;;;;;;;;;;;;20.80;39.34;95648.38;10301985;28;2779;-64
2024/03/14 07:36:59;;;;;;;;;;;;;;;20.80;39.39;95643.91;10294229;28;2836;-64
2024/03/14 07:41:59;;;;;;;;;;;;;;;20.81;39.67;95656.00;10321176;27;2817;-65
2024/03/14 07:47:00;;;;;;;;;;;;;;;20.81;39.58;95666.53;10306004;28;2886;-64
2024/03/14 07:52:00;;;;;;;;;;;;;;;20.87;38.93;95659.41;10301416;28;2945;-65
2024/03/14 07:57:00;;;;;;;;;;;;;;;20.86;38.94;95661.25;10279169;28;2825;-65
2024/03/14 08:02:01;;;;;;;;;;;;;;;20.86;39.30;95655.97;10302969;28;2926;-65
2024/03/14 08:07:10;;;;;;;;;;;;;;;20.91;39.19;95655.94;10291365;28;2927;-65
2024/03/14 08:12:10;;;;;;;;;;;;;;;20.89;39.22;95646.75;10285465;28;2813;-64
2024/03/14 08:17:13;;;;;;;;;;;;;;;20.91;38.83;95644.59;10278684;28;2897;-65
2024/03/14 08:22:14;;;;;;;;;;;;;;;20.92;39.37;95636.41;10320561;28;2791;-65
2024/03/14 08:27:15;;;;;;;;;;;;;;;20.95;38.85;95638.50;10265490;28;2935;-64
2024/03/14 08:32:16;;;;;;;;;;;;;;;20.96;39.11;95640.06;10284529;28;2830;-65
2024/03/14 08:37:16;;;;;;;;;;;;;;;20.96;39.20;95632.16;10279186;28;2842;-64
2024/03/14 08:42:27;;;;;;;;;;;;;;;20.98;39.02;95634.50;10294838;28;2920;-64
2024/03/14 08:47:27;;;;;;;;;;;;;;;20.97;38.67;95633.75;10294231;28;2789;-64
2024/03/14 08:52:28;;;;;;;;;;;;;;;21.02;38.44;95640.81;10290076;28;2872;-64
2024/03/14 08:57:28;;;;;;;;;;;;;;;21.00;39.17;95651.63;10292594;28;2867;-65
2024/03/14 09:02:29;;;;;;;;;;;;;;;21.03;39.21;95656.38;10298502;28;2841;-65
2024/03/14 09:07:29;;;;;;;;;;;;;;;21.03;38.40;95640.56;10323513;28;2867;-65
2024/03/14 09:12:30;;;;;;;;;;;;;;;21.04;38.56;95634.22;10291420;28;2835;-65
2024/03/14 09:17:30;;;;;;;;;;;;;;;21.08;38.88;95636.31;10303454;28;2791;-64
2024/03/14 09:22:31;;;;;;;;;;;;;;;21.06;38.96;95628.69;10291723;28;2894;-65
2024/03/14 09:27:32;;;;;;;;;;;;;;;21.10;38.47;95634.19;10294088;28;2805;-65
2024/03/14 09:32:34;;;;;;;;;;;;;;;21.13;38.61;95636.25;10292986;28;2844;-64
2024/03/14 09:37:34;;;;;;;;;;;;;;;21.13;38.49;95637.03;10303390;28;2812;-65
2024/03/14 09:42:35;;;;;;;;;;;;;;;21.13;38.99;95631.75;10319761;28;2783;-68
2024/03/14 09:47:39;;;;;;;;;;;;;;;21.15;39.22;95631.47;10297778;28;2843;-64
2024/03/14 09:52:39;;;;;;;;;;;;;;;21.16;38.67;95622.53;10289571;28;2808;-65
2024/03/14 09:57:43;;;;;;;;;;;;;;;21.17;39.00;95618.81;10319136;28;2827;-66
2024/03/14 10:02:43;;;;;;;;;;;;;;;21.20;38.93;95613.00;10316992;28;2843;-65
2024/03/14 10:07:45;;;;;;;;;;;;;;;21.22;38.88;95618.75;10288076;28;2925;-65
2024/03/14 10:12:50;;;;;;;;;;;;;;;21.21;39.36;95606.63;10276266;28;2928;-65
2024/03/14 10:17:53;;;;;;;;;;;;;;;21.21;39.43;95614.53;10275065;28;2778;-65
2024/03/14 10:22:54;;;;;;;;;;;;;;;21.22;39.23;95609.00;10291073;28;2949;-65
2024/03/14 10:27:55;;;;;;;;;;;;;;;21.24;39.03;95609.50;10284818;28;2808;-65
2024/03/14 10:32:56;;;;;;;;;;;;;;;21.28;39.31;95607.09;10297455;28;2857;-65
2024/03/14 10:37:59;;;;;;;;;;;;;;;21.26;39.19;95596.03;10284453;28;2810;-64
2024/03/14 10:43:03;;;;;;;;;;;;;;;21.30;39.23;95599.69;10294309;28;2889;-65
2024/03/14 10:48:07;;;;;;;;;;;;;;;21.30;39.46;95597.06;10297140;28;2922;-65
2024/03/14 10:53:07;;;;;;;;;;;;;;;21.30;39.29;95595.22;10323924;28;2846;-65
2024/03/14 10:58:07;;;;;;;;;;;;;;;21.31;39.63;95599.41;10300041;28;2768;-66
2024/03/14 11:03:11;;;;;;;;;;;;;;;21.33;39.29;95583.31;10326067;28;2832;-65
2024/03/14 11:08:11;;;;;;;;;;;;;;;21.33;39.57;95578.81;10295857;28;2863;-66
2024/03/14 11:13:12;;;;;;;;;;;;;;;21.33;39.36;95578.06;10292147;28;2929;-64
2024/03/14 11:18:13;;;;;;;;;;;;;;;21.30;39.41;95568.06;10298120;28;2847;-65
2024/03/14 11:23:14;;;;;;;;;;;;;;;21.30;39.43;95573.31;10308126;28;2821;-65
2024/03/14 11:28:14;;;;;;;;;;;;;;;21.27;39.47;95560.72;10297964;28;3151;-65
2024/03/14 11:33:15;;;;;;;;;;;;;;;21.23;39.99;95559.69;10275155;28;2886;-65
2024/03/14 11:38:15;;;;;;;;;;;;;;;21.21;39.69;95562.63;10292208;28;2900;-65
2024/03/14 11:43:17;;;;;;;;;;;;;;;21.19;39.77;95558.69;10289642;28;2892;-65
2024/03/14 11:48:19;;;;;;;;;;;;;;;21.16;39.87;95549.50;10327211;28;2832;-66
2024/03/14 11:53:22;;;;;;;;;;;;;;;21.12;39.88;95540.59;10297077;28;2803;-65
2024/03/14 11:58:23;;;;;;;;;;;;;;;21.13;40.07;95536.09;10312514;28;2822;-66
2024/03/14 12:03:24;;;;;;;;;;;;;;;21.12;40.38;95539.81;10293210;28;2802;-68
2024/03/14 12:08:24;;;;;;;;;;;;;;;21.09;40.50;95527.97;10314209;28;2853;-66
2024/03/14 12:13:27;;;;;;;;;;;;;;;21.08;40.35;95526.41;10310648;28;2923;-66
2024/03/14 12:18:29;;;;;;;;;;;;;;;21.06;40.44;95510.88;10298205;28;2731;-66
2024/03/14 12:23:29;;;;;;;;;;;;;;;21.06;40.22;95512.75;10315878;28;2930;-65
2024/03/14 12:28:31;;;;;;;;;;;;;;;21.04;40.41;95497.19;10297561;28;2783;-66
2024/03/14 12:33:31;;;;;;;;;;;;;;;21.05;40.34;95495.34;10289129;28;2807;-65
2024/03/14 12:38:32;;;;;;;;;;;;;;;21.05;40.14;95482.94;10286646;28;3016;-66
2024/03/14 12:43:32;;;;;;;;;;;;;;;21.05;40.03;95488.22;10318752;28;2792;-66
2024/03/14 12:48:32;;;;;;;;;;;;;;;21.05;40.26;95485.59;10321035;28;2831;-66
2024/03/14 12:53:32;;;;;;;;;;;;;;;21.06;40.28;95481.88;10283903;28;2829;-65
2024/03/14 12:58:33;;;;;;;;;;;;;;;21.06;40.03;95475.84;10319950;28;2779;-65
2024/03/14 13:03:33;;;;;;;;;;;;;;;21.08;40.31;95472.91;10292088;28;2850;-66
2024/03/14 13:08:34;;;;;;;;;;;;;;;21.08;40.11;95470.28;10286615;28;2869;-65
2024/03/14 13:13:37;;;;;;;;;;;;;;;21.08;40.00;95466.56;10308816;28;2853;-65
2024/03/14 13:18:39;;;;;;;;;;;;;;;21.08;40.11;95462.38;10288776;28;2950;-65
2024/03/14 13:23:45;;;;;;;;;;;;;;;21.06;40.04;95457.41;10306515;28;2893;-66
2024/03/14 13:28:45;;;;;;;;;;;;;;;21.07;40.29;95453.69;10293243;28;2962;-66
2024/03/14 13:33:46;;;;;;;;;;;;;;;21.05;40.46;95451.31;10305900;28;2854;-66
2024/03/14 13:38:49;;;;;;;;;;;;;;;21.05;40.31;95442.63;10318197;28;2807;-67
2024/03/14 13:43:49;;;;;;;;;;;;;;;21.04;40.38;95441.84;10289110;28;2854;-66
2024/03/14 13:48:50;;;;;;;;;;;;;;;21.04;40.42;95443.72;10320271;28;2853;-65
2024/03/14 13:53:50;;;;;;;;;;;;;;;21.04;40.62;95441.09;10296694;28;2832;-65
2024/03/14 13:58:52;;;;;;;;;;;;;;;21.01;40.71;95439.75;10316318;28;2842;-67
2024/03/14 14:03:57;;;;;;;;;;;;;;;21.01;40.44;95442.41;10289803;28;2812;-66
2024/03/14 14:08:58;;;;;;;;;;;;;;;20.99;40.59;95430.56;10290505;28;2798;-68
2024/03/14 14:14:00;;;;;;;;;;;;;;;20.98;40.37;95428.97;10289176;28;2973;-68
2024/03/14 14:19:01;;;;;;;;;;;;;;;20.96;40.56;95431.91;10297718;28;2918;-67
2024/03/14 14:24:01;;;;;;;;;;;;;;;20.95;40.67;95419.03;10285930;28;2788;-67
2024/03/14 14:29:03;;;;;;;;;;;;;;;20.93;40.43;95423.78;10289465;28;2827;-66
2024/03/14 14:34:03;;;;;;;;;;;;;;;20.93;40.71;95413.25;10283677;28;3028;-67
2024/03/14 14:39:04;;;;;;;;;;;;;;;20.93;40.64;95415.88;10282257;28;3053;-69
2024/03/14 14:44:04;;;;;;;;;;;;;;;20.93;40.82;95405.34;10269473;28;2825;-68
2024/03/14 14:49:04;;;;;;;;;;;;;;;20.93;40.64;95395.59;10290149;28;2906;-68
2024/03/14 14:54:08;;;;;;;;;;;;;;;20.94;40.63;95397.16;10286531;28;2902;-67
2024/03/14 14:59:08;;;;;;;;;;;;;;;20.94;40.54;95391.88;10281233;28;2954;-68
2024/03/14 15:04:08;;;;;;;;;;;;;;;20.96;40.70;95384.47;10289304;28;2828;-67
2024/03/14 15:09:10;;;;;;;;;;;;;;;20.98;40.44;95387.59;10290720;28;2783;-67
2024/03/14 15:14:10;;;;;;;;;;;;;;;20.99;40.38;95376.03;10288920;28;2767;-67
2024/03/14 15:19:10;;;;;;;;;;;;;;;21.01;40.49;95376.50;10294218;28;2967;-67
2024/03/14 15:24:11;;;;;;;;;;;;;;;21.03;40.50;95365.72;10291407;28;2901;-67
2024/03/14 15:29:15;;;;;;;;;;;;;;;21.03;40.41;95363.88;10297213;28;3116;-67
2024/03/14 15:34:15;;;;;;;;;;;;;;;21.05;40.37;95359.09;10295648;28;2791;-68
2024/03/14 15:39:17;;;;;;;;;;;;;;;21.09;40.43;95364.56;10319932;28;2909;-67
2024/03/14 15:44:18;;;;;;;;;;;;;;;21.12;40.47;95365.84;10295052;28;2872;-66
2024/03/14 15:49:18;;;;;;;;;;;;;;;21.12;40.45;95363.22;10294248;28;2808;-66
2024/03/14 15:54:18;;;;;;;;;;;;;;;21.14;40.21;95361.88;10283918;28;2804;-66
2024/03/14 15:59:18;;;;;;;;;;;;;;;21.16;40.41;95364.22;10291455;28;2924;-67
2024/03/14 16:04:19;;;;;;;;;;;;;;;21.16;40.28;95359.72;10291060;28;2829;-71
2024/03/14 16:09:20;;;;;;;;;;;;;;;21.17;40.14;95357.84;10321413;28;2839;-66
2024/03/14 16:14:22;;;;;;;;;;;;;;;21.18;40.34;95354.16;10320544;28;2760;-66
2024/03/14 16:19:24;;;;;;;;;;;;;;;21.16;40.29;95351.03;10291294;28;2905;-67
2024/03/14 16:24:25;;;;;;;;;;;;;;;21.18;40.08;95343.63;10297492;28;2819;-67
2024/03/14 16:29:26;;;;;;;;;;;;;;;21.19;40.06;95342.53;10291390;28;2787;-66
2024/03/14 16:34:27;;;;;;;;;;;;;;;21.17;40.06;95340.19;10291854;28;2828;-66
2024/03/14 16:39:27;;;;;;;;;;;;;;;21.19;39.92;95334.63;10374318;28;2794;-67
2024/03/14 16:44:28;;;;;;;;;;;;;;;21.21;40.06;95332.50;10288620;28;2780;-67
2024/03/14 16:49:31;;;;;;;;;;;;;;;21.19;40.18;95335.41;10299961;28;2883;-66
2024/03/14 16:54:31;;;;;;;;;;;;;;;21.19;39.93;95329.38;10292330;28;2937;-67
2024/03/14 16:59:31;;;;;;;;;;;;;;;21.17;39.95;95328.88;10315087;28;2790;-67
2024/03/14 17:04:32;;;;;;;;;;;;;;;21.18;39.85;95327.81;10309219;28;2794;-66
2024/03/14 17:09:33;;;;;;;;;;;;;;;21.16;39.87;95335.22;10288669;28;3001;-67
2024/03/14 17:14:34;;;;;;;;;;;;;;;21.15;40.11;95331.00;10286053;28;2844;-67
2024/03/14 17:19:34;;;;;;;;;;;;;;;21.14;40.11;95329.47;10298913;28;2852;-67
2024/03/14 17:24:35;;;;;;;;;;;;;;;21.13;39.94;95322.59;10288629;28;2962;-67
2024/03/14 17:29:36;;;;;;;;;;;;;;;21.11;40.00;95328.16;10305602;28;2922;-66
2024/03/14 17:34:37;;;;;;;;;;;;;;;21.11;40.17;95327.38;10292732;28;2870;-67
2024/03/14 17:39:37;;;;;;;;;;;;;;;21.10;40.49;95328.47;10284848;28;2813;-66
2024/03/14 17:44:38;;;;;;;;;;;;;;;21.08;40.36;95329.53;10308512;28;2831;-65
2024/03/14 17:49:38;;;;;;;;;;;;;;;21.06;40.48;95334.28;10290541;28;2823;-66
2024/03/14 17:54:39;;;;;;;;;;;;;;;21.06;40.43;95318.47;10301624;28;2777;-67
2024/03/14 17:59:40;;;;;;;;;;;;;;;21.15;40.52;95336.28;10312186;28;2833;-66
2024/03/14 18:04:40;;;;;;;;;;;;;;;21.18;41.54;95328.59;10297678;28;2979;-66
2024/03/14 18:09:41;;;;;;;;;;;;;;;21.23;41.76;95333.78;10289079;28;2841;-68
2024/03/14 18:14:41;;;;;;;;;;;;;;;21.29;41.93;95331.88;10304272;28;2839;-68
2024/03/14 18:19:42;;;;;;;;;;;;;;;21.32;41.89;95334.69;10289032;28;2958;-67
2024/03/14 18:24:42;;;;;;;;;;;;;;;21.39;42.35;95337.75;10281563;28;3016;-72
2024/03/14 18:29:43;;;;;;;;;;;;;;;21.37;42.29;95334.59;10288091;28;2824;-70
2024/03/14 18:34:43;;;;;;;;;;;;;;;21.44;41.36;95331.59;10306404;28;2899;-72
2024/03/14 18:39:44;;;;;;;;;;;;;;;21.46;41.06;95334.75;10306655;28;1842;-72
2024/03/14 18:44:49;;;;;;;;;;;;;;;21.50;40.51;95336.50;10361493;28;1906;-74
2024/03/14 18:49:50;;;;;;;;;;;;;;;21.54;40.91;95331.44;10315067;28;2015;-72
2024/03/14 18:54:51;;;;;;;;;;;;;;;21.61;40.16;95331.84;10325178;28;2283;-70
2024/03/14 18:59:52;;;;;;;;;;;;;;;21.58;40.65;95337.69;10337891;28;1830;-73
2024/03/14 19:04:52;;;;;;;;;;;;;;;21.62;40.73;95331.56;10306052;28;1907;-71
2024/03/14 19:09:52;;;;;;;;;;;;;;;21.65;40.71;95331.00;10318020;28;1842;-70
2024/03/14 19:14:53;;;;;;;;;;;;;;;21.68;39.85;95330.41;10311148;28;1897;-71
2024/03/14 19:19:53;;;;;;;;;;;;;;;21.68;40.07;95327.75;10311402;28;1795;-72
2024/03/14 19:24:54;;;;;;;;;;;;;;;21.70;40.28;95330.13;10304299;28;2369;-73
2024/03/14 19:29:54;;;;;;;;;;;;;;;21.74;40.11;95331.88;10313288;28;1881;-73
2024/03/14 19:34:54;;;;;;;;;;;;;;;21.74;40.16;95323.19;10306938;28;1877;-72
2024/03/14 19:39:55;;;;;;;;;;;;;;;21.77;39.48;95330.50;10289988;28;1384;-72
2024/03/14 19:44:55;;;;;;;;;;;;;;;21.78;39.66;95322.31;10334806;28;2474;-71
2024/03/14 19:49:55;;;;;;;;;;;;;;;21.82;39.58;95325.19;10295543;28;1973;-72
2024/03/14 19:54:56;;;;;;;;;;;;;;;21.80;39.87;95319.41;10315786;28;1409;-73
2024/03/14 19:59:58;;;;;;;;;;;;;;;21.82;39.00;95317.28;10318875;28;1894;-73
2024/03/14 20:04:58;;;;;;;;;;;;;;;21.83;39.22;95310.91;10329213;28;1963;-72
2024/03/14 20:09:58;;;;;;;;;;;;;;;21.88;39.38;95304.75;10360435;28;1857;-72
2024/03/14 20:14:59;;;;;;;;;;;;;;;21.87;39.91;95309.25;10295068;28;2835;-75
2024/03/14 20:19:59;;;;;;;;;;;;;;;21.86;39.69;95308.47;10294081;28;2820;-74
2024/03/14 20:24:59;;;;;;;;;;;;;;;21.84;39.73;95309.84;10327148;28;2855;-75
2024/03/14 20:30:01;;;;;;;;;;;;;;;21.85;39.63;95306.91;10293947;28;2853;-71
2024/03/14 20:35:01;;;;;;;;;;;;;;;21.83;39.86;95313.56;10292154;28;2889;-72
2024/03/14 20:40:01;;;;;;;;;;;;;;;21.74;40.55;95313.41;10272531;28;2815;-69
2024/03/14 20:45:02;;;;;;;;;;;;;;;21.59;41.31;95302.34;10285667;28;3005;-71
2024/03/14 20:50:03;;;;;;;;;;;;;;;21.54;41.53;95305.84;10282366;28;2854;-72
2024/03/14 20:55:06;;;;;;;;;;;;;;;21.44;41.70;95299.97;10296670;28;2816;-72
2024/03/14 21:00:07;;;;;;;;;;;;;;;21.38;42.15;95303.75;10291728;28;2968;-72
2024/03/14 21:05:08;;;;;;;;;;;;;;;21.32;42.41;95303.06;10282672;28;2809;-71
2024/03/14 21:10:10;;;;;;;;;;;;;;;21.26;42.57;95304.22;10286073;28;2990;-72
2024/03/14 21:15:11;;;;;;;;;;;;;;;21.23;42.52;95307.41;10281814;28;2866;-72
2024/03/14 21:20:23;;;;;;;;;;;;;;;21.17;42.92;95300.66;10297175;28;3021;-72
2024/03/14 21:25:24;;;;;;;;;;;;;;;21.15;42.50;95304.66;10275224;28;2944;-71
2024/03/14 21:30:26;;;;;;;;;;;;;;;21.10;42.54;95308.16;10297496;28;2859;-72
2024/03/14 21:35:27;;;;;;;;;;;;;;;21.08;42.44;95306.88;10293418;28;2978;-72
2024/03/14 21:40:28;;;;;;;;;;;;;;;21.04;42.96;95320.63;10273078;28;2838;-73
2024/03/14 21:45:28;;;;;;;;;;;;;;;21.01;42.89;95313.28;10287004;28;2870;-72
2024/03/14 21:50:29;;;;;;;;;;;;;;;21.00;42.85;95316.97;10271254;28;2908;-72
2024/03/14 21:55:30;;;;;;;;;;;;;;;20.97;42.99;95320.19;10284387;28;3222;-72
2024/03/14 22:00:30;;;;;;;;;;;;;;;20.95;42.91;95324.97;10304512;28;2893;-72
2024/03/14 22:05:32;;;;;;;;;;;;;;;20.92;43.21;95320.25;10279859;28;2921;-73
2024/03/14 22:10:32;;;;;;;;;;;;;;;20.90;43.20;95326.88;10299461;28;2802;-73
2024/03/14 22:15:32;;;;;;;;;;;;;;;20.87;42.88;95322.97;10295562;28;2915;-72
2024/03/14 22:20:33;;;;;;;;;;;;;;;20.85;43.33;95321.69;10311053;28;2593;-72
2024/03/14 22:25:33;;;;;;;;;;;;;;;20.83;43.00;95323.81;10342420;28;1859;-73
2024/03/14 22:30:33;;;;;;;;;;;;;;;20.82;42.92;95328.28;10312618;28;2741;-72
2024/03/14 22:35:34;;;;;;;;;;;;;;;20.80;43.08;95327.00;10304769;28;2658;-72
2024/03/14 22:40:35;;;;;;;;;;;;;;;20.78;43.22;95329.16;10309098;28;1936;-72
2024/03/14 22:45:35;;;;;;;;;;;;;;;20.76;43.29;95326.00;10319599;28;1529;-73
2024/03/14 22:50:36;;;;;;;;;;;;;;;20.74;43.40;95322.88;10312742;28;1839;-73
2024/03/14 22:55:37;;;;;;;;;;;;;;;20.73;43.28;95324.72;10308536;28;1927;-72
2024/03/14 23:00:46;;;;;;;;;;;;;;;20.70;43.42;95322.66;10292863;28;1906;-73
2024/03/14 23:05:46;;;;;;;;;;;;;;;20.69;43.13;95315.81;10298167;28;1868;-73
2024/03/14 23:10:46;;;;;;;;;;;;;;;20.69;43.22;95325.59;10310796;28;1994;-73
2024/03/14 23:15:47;;;;;;;;;;;;;;;20.65;43.23;95328.00;10308223;28;1861;-73
2024/03/14 23:20:47;;;;;;;;;;;;;;;20.66;43.04;95320.88;10310904;28;2042;-72
2024/03/14 23:25:48;;;;;;;;;;;;;;;20.64;43.35;95323.00;10305172;28;1910;-72
2024/03/14 23:30:50;;;;;;;;;;;;;;;20.63;43.25;95322.22;10299112;28;1852;-74
2024/03/14 23:35:51;;;;;;;;;;;;;;;20.61;43.22;95327.00;10283876;28;2218;-73
2024/03/14 23:40:51;;;;;;;;;;;;;;;20.61;43.27;95328.88;10296462;28;2072;-73
2024/03/14 23:45:53;;;;;;;;;;;;;;;20.58;43.09;95332.84;10295295;28;2117;-73
2024/03/14 23:50:56;;;;;;;;;;;;;;;20.58;43.23;95335.47;10325254;28;2084;-74
2024/03/14 23:55:56;;;;;;;;;;;;;;;20.57;43.08;95338.38;10311065;28;2062;-73
